createdAt,value
2023-08-20T00:00:16.462Z,101485.56
2023-08-20T00:02:45.224Z,101485.56
2023-08-20T00:05:13.909Z,65387.91
2023-08-20T00:07:42.318Z,101486.19
2023-08-20T00:10:10.695Z,101511.34
2023-08-20T00:13:36.706Z,65387.91
2023-08-20T00:17:04.878Z,65387.91
2023-08-20T00:20:31.780Z,65387.91
2023-08-20T00:23:58.242Z,65387.91
2023-08-20T00:26:39.519Z,101511.34
2023-08-20T00:29:07.013Z,100884.16
2023-08-20T00:31:35.948Z,100887.38
2023-08-20T00:34:07.071Z,100900.06
2023-08-20T00:36:35.364Z,100903.31
2023-08-20T00:39:02.978Z,100909.00
2023-08-20T00:41:30.452Z,100903.59
2023-08-20T00:43:58.006Z,100905.75
2023-08-20T00:46:25.558Z,100905.47
2023-08-20T00:48:54.405Z,100913.84
2023-08-20T00:51:21.896Z,100911.63
2023-08-20T00:53:49.436Z,100911.63
2023-08-20T00:56:17.472Z,100930.50
2023-08-20T00:58:45.953Z,100937.75
2023-08-20T01:01:13.456Z,100938.22
2023-08-20T01:03:41.473Z,100938.22
2023-08-20T01:06:21.992Z,100942.81
2023-08-20T01:08:56.289Z,100954.72
2023-08-20T01:11:29.704Z,100954.72
2023-08-20T01:13:57.320Z,53094.53
2023-08-20T01:16:24.958Z,100954.72
2023-08-20T01:18:52.752Z,100954.72
2023-08-20T01:26:56.562Z,65387.91
2023-08-20T01:29:28.001Z,65387.91
2023-08-20T01:32:04.999Z,65387.91
2023-08-20T01:35:02.939Z,65387.91
2023-08-20T01:37:41.000Z,100954.72
2023-08-20T01:40:25.584Z,100954.72
2023-08-20T01:42:53.166Z,101016.41
2023-08-20T01:45:22.874Z,101053.69
2023-08-20T01:47:50.634Z,101053.69
2023-08-20T01:50:18.265Z,101151.13
2023-08-20T01:52:45.827Z,101053.69
2023-08-20T01:57:40.770Z,95620.88
2023-08-20T02:02:38.119Z,65387.91
2023-08-20T02:05:06.177Z,65387.91
2023-08-20T02:07:34.036Z,65387.91
2023-08-20T02:10:02.105Z,65387.91
2023-08-20T02:12:31.267Z,65387.91
2023-08-20T02:14:58.926Z,65387.91
2023-08-20T02:17:26.521Z,65387.91
2023-08-20T02:19:55.476Z,65387.91
2023-08-20T02:22:22.977Z,65387.91
2023-08-20T02:24:50.706Z,101053.69
2023-08-20T02:27:18.177Z,65387.91
2023-08-20T02:29:46.706Z,65387.91
2023-08-20T02:32:14.202Z,65387.91
2023-08-20T02:34:41.688Z,65387.91
2023-08-20T02:37:10.545Z,65387.91
2023-08-20T02:39:38.520Z,65387.91
2023-08-20T02:42:06.149Z,65387.91
2023-08-20T02:44:35.049Z,65387.91
2023-08-20T02:47:03.464Z,65387.91
2023-08-20T02:49:31.574Z,65387.91
2023-08-20T02:52:01.524Z,65387.91
2023-08-20T02:54:36.329Z,65387.91
2023-08-20T02:57:10.255Z,65387.91
2023-08-20T02:59:38.322Z,65387.91
2023-08-20T03:02:06.486Z,65387.91
2023-08-20T03:04:36.941Z,65387.91
2023-08-20T03:07:08.553Z,65387.91
2023-08-20T03:09:41.463Z,65387.91
2023-08-20T03:12:46.224Z,65387.91
2023-08-20T03:15:52.915Z,65387.91
2023-08-20T03:18:53.556Z,65387.91
2023-08-20T03:21:54.277Z,65387.91
2023-08-20T03:24:38.709Z,65387.91
2023-08-20T03:27:16.330Z,65387.91
2023-08-20T03:29:54.026Z,65387.91
2023-08-20T03:32:23.187Z,65387.91
2023-08-20T03:35:00.062Z,65387.91
2023-08-20T03:37:42.528Z,65387.91
2023-08-20T03:40:19.987Z,65387.91
2023-08-20T03:42:48.265Z,65387.91
2023-08-20T03:45:18.006Z,65387.91
2023-08-20T03:47:48.108Z,65387.91
2023-08-20T03:50:20.725Z,65387.91
2023-08-20T03:53:31.004Z,65387.91
2023-08-20T03:56:44.839Z,65387.91
2023-08-20T03:59:53.453Z,65387.91
2023-08-20T04:02:52.200Z,65387.91
2023-08-20T04:05:21.546Z,65387.91
2023-08-20T04:07:49.326Z,65387.91
2023-08-20T04:10:16.835Z,65387.91
2023-08-20T04:13:44.731Z,65387.91
2023-08-20T04:17:08.132Z,65387.91
2023-08-20T04:20:34.144Z,65387.91
2023-08-20T04:24:00.199Z,65387.91
2023-08-20T04:27:26.258Z,65387.91
2023-08-20T04:29:55.117Z,65387.91
2023-08-20T04:33:20.531Z,65387.91
2023-08-20T04:36:45.434Z,65387.91
2023-08-20T04:40:11.926Z,65387.91
2023-08-20T04:43:37.953Z,65387.91
2023-08-20T04:47:05.372Z,65387.91
2023-08-20T04:49:44.529Z,65387.91
2023-08-20T04:52:35.480Z,65387.91
2023-08-20T04:55:02.994Z,65387.91
2023-08-20T04:57:35.830Z,65387.91
2023-08-20T05:00:04.688Z,65387.91
2023-08-20T05:02:38.114Z,65387.91
2023-08-20T05:05:06.648Z,65387.91
2023-08-20T05:07:45.785Z,65387.91
2023-08-20T05:10:14.428Z,65387.91
2023-08-20T05:13:40.555Z,65387.91
2023-08-20T05:16:34.529Z,65387.91
2023-08-20T05:19:58.903Z,65387.91
2023-08-20T05:23:13.116Z,65387.91
2023-08-20T05:26:39.488Z,65387.91
2023-08-20T05:30:05.974Z,65387.91
2023-08-20T05:33:31.976Z,65387.91
2023-08-20T05:36:59.765Z,65387.91
2023-08-20T05:39:27.678Z,65387.91
2023-08-20T05:42:53.677Z,65387.91
2023-08-20T05:46:19.711Z,65387.91
2023-08-20T05:49:45.754Z,65387.91
2023-08-20T05:53:13.071Z,65387.91
2023-08-20T05:56:36.958Z,65387.91
2023-08-20T06:00:05.256Z,65387.91
2023-08-20T06:03:31.472Z,65387.91
2023-08-20T06:06:57.833Z,65387.91
2023-08-20T06:10:25.166Z,65387.91
2023-08-20T06:13:51.191Z,65387.91
2023-08-20T06:17:17.330Z,65387.91
2023-08-20T06:20:44.948Z,65387.91
2023-08-20T06:24:10.849Z,65387.91
2023-08-20T06:26:39.708Z,65387.91
2023-08-20T06:30:06.913Z,65387.91
2023-08-20T06:33:32.917Z,65387.91
2023-08-20T06:36:58.935Z,65387.91
2023-08-20T06:40:24.994Z,65387.91
2023-08-20T06:43:52.342Z,65387.91
2023-08-20T06:47:18.565Z,65387.91
2023-08-20T06:50:44.587Z,65387.91
2023-08-20T06:54:10.784Z,65387.91
2023-08-20T06:56:38.304Z,65387.91
2023-08-20T06:59:07.103Z,65387.91
2023-08-20T07:01:34.689Z,65387.91
2023-08-20T07:04:03.621Z,65387.91
2023-08-20T07:06:32.263Z,65387.91
2023-08-20T07:08:59.813Z,65387.91
2023-08-20T07:11:27.284Z,65387.91
2023-08-20T07:13:54.877Z,65387.91
2023-08-20T07:16:23.759Z,65387.91
2023-08-20T07:18:51.287Z,65387.91
2023-08-20T07:21:21.113Z,101053.69
2023-08-20T07:23:48.634Z,65387.91
2023-08-20T07:26:16.610Z,65387.91
2023-08-20T07:28:59.180Z,65387.91
2023-08-20T07:31:31.273Z,100880.09
2023-08-20T07:34:04.588Z,100880.09
2023-08-20T07:36:32.762Z,100880.50
2023-08-20T07:39:02.683Z,100873.78
2023-08-20T07:41:31.156Z,100869.28
2023-08-20T07:43:58.627Z,100863.81
2023-08-20T07:46:26.307Z,100870.34
2023-08-20T07:48:55.598Z,100870.38
2023-08-20T07:51:23.120Z,100883.47
2023-08-20T07:53:50.667Z,100868.47
2023-08-20T07:56:18.157Z,100873.00
2023-08-20T07:58:45.640Z,100867.59
2023-08-20T08:01:14.619Z,100879.38
2023-08-20T08:03:42.480Z,100877.34
2023-08-20T08:06:11.381Z,100879.13
2023-08-20T08:08:44.976Z,100878.31
2023-08-20T08:11:12.496Z,100880.84
2023-08-20T08:13:39.969Z,100882.66
2023-08-20T08:16:07.466Z,100868.06
2023-08-20T08:18:34.932Z,100888.41
2023-08-20T08:21:02.423Z,100891.03
2023-08-20T08:23:31.243Z,100878.38
2023-08-20T08:25:58.747Z,100884.72
2023-08-20T08:28:26.245Z,100883.09
2023-08-20T08:30:53.764Z,100884.34
2023-08-20T08:33:22.159Z,100881.78
2023-08-20T08:35:49.672Z,100895.00
2023-08-20T08:38:17.162Z,100895.66
2023-08-20T08:40:46.349Z,100896.38
2023-08-20T08:43:17.750Z,100895.47
2023-08-20T08:45:49.106Z,100886.94
2023-08-20T08:48:17.221Z,100895.88
2023-08-20T08:50:45.312Z,100895.31
2023-08-20T08:53:15.206Z,100888.88
2023-08-20T08:55:43.976Z,100888.63
2023-08-20T08:58:12.886Z,100892.84
2023-08-20T09:00:40.606Z,100902.03
2023-08-20T09:03:08.176Z,100903.63
2023-08-20T09:05:47.681Z,100908.25
2023-08-20T09:08:21.246Z,100923.19
2023-08-20T09:10:52.104Z,100925.53
2023-08-20T09:13:24.678Z,100928.88
2023-08-20T09:15:52.589Z,100931.50
2023-08-20T09:18:20.054Z,100932.63
2023-08-20T09:20:49.959Z,100921.00
2023-08-20T09:23:17.970Z,100909.00
2023-08-20T09:25:46.192Z,100921.41
2023-08-20T09:28:13.761Z,100918.47
2023-08-20T09:30:56.173Z,100926.69
2023-08-20T09:33:23.709Z,100925.19
2023-08-20T09:35:51.448Z,100932.25
2023-08-20T09:38:22.065Z,100941.34
2023-08-20T09:40:51.085Z,100942.56
2023-08-20T09:43:19.028Z,100944.25
2023-08-20T09:45:49.116Z,100953.25
2023-08-20T09:48:21.184Z,100948.53
2023-08-20T09:50:49.648Z,100948.53
2023-08-20T09:53:27.704Z,100954.34
2023-08-20T09:56:01.321Z,100953.06
2023-08-20T09:58:29.312Z,100956.06
2023-08-20T10:01:00.530Z,100963.28
2023-08-20T10:03:28.114Z,100957.28
2023-08-20T10:05:56.539Z,100960.75
2023-08-20T10:08:24.427Z,100960.34
2023-08-20T10:10:51.992Z,100950.91
2023-08-20T10:13:20.053Z,100947.56
2023-08-20T10:15:48.588Z,100954.53
2023-08-20T10:18:17.464Z,100939.41
2023-08-20T10:20:44.977Z,100948.41
2023-08-20T10:23:14.449Z,100938.31
2023-08-20T10:25:45.096Z,100936.66
2023-08-20T10:28:16.169Z,100936.03
2023-08-20T10:31:08.308Z,100941.34
2023-08-20T10:33:38.183Z,100944.09
2023-08-20T10:36:10.133Z,100954.25
2023-08-20T10:38:37.919Z,100953.19
2023-08-20T10:41:08.682Z,100967.19
2023-08-20T10:43:38.560Z,100954.34
2023-08-20T10:46:11.089Z,100946.53
2023-08-20T10:48:42.093Z,100942.97
2023-08-20T10:51:11.906Z,100949.09
2023-08-20T10:53:39.883Z,100957.84
2023-08-20T10:56:12.059Z,100961.09
2023-08-20T10:58:40.992Z,100956.56
2023-08-20T11:01:19.566Z,100952.97
2023-08-20T11:03:50.621Z,100955.19
2023-08-20T11:06:19.060Z,100956.13
2023-08-20T11:08:46.916Z,100948.19
2023-08-20T11:11:14.856Z,100958.88
2023-08-20T11:13:43.832Z,100954.63
2023-08-20T11:16:11.784Z,100954.47
2023-08-20T11:18:39.382Z,100953.03
2023-08-20T11:21:09.643Z,100958.13
2023-08-20T11:23:40.722Z,100928.00
2023-08-20T11:26:09.403Z,100928.13
2023-08-20T11:28:36.922Z,100923.63
2023-08-20T11:31:04.747Z,100929.06
2023-08-20T11:33:32.641Z,100915.78
2023-08-20T11:36:00.263Z,100916.91
2023-08-20T11:38:29.309Z,100916.09
2023-08-20T11:40:58.431Z,100908.56
2023-08-20T11:43:26.030Z,100907.13
2023-08-20T11:45:53.506Z,100923.78
2023-08-20T11:48:22.748Z,100934.09
2023-08-20T11:50:51.984Z,100938.13
2023-08-20T11:53:23.469Z,100934.63
2023-08-20T11:55:52.384Z,100935.66
2023-08-20T11:58:20.872Z,100923.28
2023-08-20T12:00:50.787Z,100921.09
2023-08-20T12:03:20.780Z,100913.47
2023-08-20T12:05:48.391Z,100914.22
2023-08-20T12:08:18.465Z,100927.66
2023-08-20T12:10:46.084Z,100919.81
2023-08-20T12:13:14.919Z,100912.06
2023-08-20T12:15:42.389Z,100908.28
2023-08-20T12:18:11.225Z,100903.16
2023-08-20T12:20:39.204Z,100913.50
2023-08-20T12:23:08.855Z,100918.69
2023-08-20T12:25:37.741Z,100909.94
2023-08-20T12:28:07.048Z,100908.72
2023-08-20T12:30:38.568Z,100912.75
2023-08-20T12:33:07.169Z,100905.47
2023-08-20T12:35:34.950Z,100906.22
2023-08-20T12:38:02.553Z,100885.38
2023-08-20T12:40:32.551Z,100893.47
2023-08-20T12:43:00.069Z,100895.47
2023-08-20T12:45:27.561Z,100900.59
2023-08-20T12:47:56.997Z,100903.25
2023-08-20T12:50:26.619Z,100906.34
2023-08-20T12:52:54.095Z,100910.75
2023-08-20T12:55:21.783Z,100908.78
2023-08-20T12:57:56.994Z,100907.56
2023-08-20T13:00:25.958Z,100905.63
2023-08-20T13:02:55.793Z,100895.06
2023-08-20T13:05:26.197Z,100891.28
2023-08-20T13:07:54.895Z,100892.50
2023-08-20T13:10:23.531Z,100898.56
2023-08-20T13:12:54.962Z,100900.75
2023-08-20T13:15:25.814Z,100903.00
2023-08-20T13:17:53.974Z,100896.09
2023-08-20T13:20:24.289Z,100895.59
2023-08-20T13:22:54.101Z,100891.72
2023-08-20T13:25:22.335Z,100899.13
2023-08-20T13:27:50.578Z,100887.78
2023-08-20T13:30:18.843Z,65387.91
2023-08-20T13:32:46.365Z,100888.63
2023-08-20T13:35:15.396Z,100898.53
2023-08-20T13:37:43.493Z,100897.75
2023-08-20T13:40:13.150Z,100897.09
2023-08-20T13:42:40.641Z,100895.94
2023-08-20T13:45:09.517Z,100892.22
2023-08-20T13:47:37.071Z,100888.66
2023-08-20T13:50:05.766Z,100891.47
2023-08-20T13:52:37.006Z,100874.34
2023-08-20T13:55:05.178Z,100866.09
2023-08-20T13:57:33.996Z,100859.34
2023-08-20T14:00:01.775Z,100850.44
2023-08-20T14:02:29.338Z,100847.91
2023-08-20T14:04:56.938Z,100841.66
2023-08-20T14:07:25.421Z,100849.41
2023-08-20T14:09:52.893Z,100850.72
2023-08-20T14:12:20.968Z,100855.69
2023-08-20T14:14:49.794Z,100862.25
2023-08-20T14:17:18.364Z,100856.13
2023-08-20T14:19:45.831Z,100869.72
2023-08-20T14:22:13.301Z,100863.63
2023-08-20T14:24:40.805Z,100861.22
2023-08-20T14:27:08.955Z,100849.91
2023-08-20T14:29:36.755Z,100844.13
2023-08-20T14:32:05.229Z,100852.97
2023-08-20T14:34:32.734Z,100857.13
2023-08-20T14:37:00.242Z,100844.00
2023-08-20T14:39:27.752Z,100843.47
2023-08-20T14:41:55.332Z,100835.13
2023-08-20T14:44:22.820Z,100831.84
2023-08-20T14:46:50.378Z,100831.63
2023-08-20T14:49:20.584Z,100826.78
2023-08-20T14:51:48.299Z,100817.16
2023-08-20T14:54:15.971Z,100812.16
2023-08-20T14:56:43.539Z,100823.88
2023-08-20T14:59:11.499Z,100818.88
2023-08-20T15:01:39.084Z,100826.41
2023-08-20T15:04:07.867Z,100813.16
2023-08-20T15:06:36.769Z,100801.59
2023-08-20T15:09:04.773Z,100809.72
2023-08-20T15:11:33.658Z,100802.47
2023-08-20T15:14:01.156Z,100797.38
2023-08-20T15:16:29.239Z,100795.03
2023-08-20T15:18:56.782Z,100796.34
2023-08-20T15:21:24.354Z,100793.53
2023-08-20T15:23:53.162Z,100795.78
2023-08-20T15:26:20.702Z,100812.78
2023-08-20T15:28:48.186Z,100811.00
2023-08-20T15:31:15.795Z,100803.66
2023-08-20T15:33:43.653Z,100807.59
2023-08-20T15:36:11.154Z,100824.56
2023-08-20T15:38:38.656Z,100817.25
2023-08-20T15:41:08.628Z,100808.06
2023-08-20T15:43:37.438Z,100818.19
2023-08-20T15:46:04.929Z,100825.84
2023-08-20T15:48:32.507Z,100823.19
2023-08-20T15:51:02.739Z,100818.91
2023-08-20T15:53:30.246Z,100812.81
2023-08-20T15:55:57.697Z,100812.06
2023-08-20T15:58:26.508Z,100821.41
2023-08-20T16:00:53.975Z,100820.47
2023-08-20T16:03:21.538Z,100805.25
2023-08-20T16:05:49.066Z,100807.06
2023-08-20T16:08:16.645Z,100802.97
2023-08-20T16:10:44.902Z,100804.28
2023-08-20T16:13:12.425Z,100809.59
2023-08-20T16:15:41.670Z,100787.72
2023-08-20T16:18:09.717Z,100778.41
2023-08-20T16:20:37.754Z,100774.66
2023-08-20T16:23:05.780Z,100786.69
2023-08-20T16:25:36.434Z,100782.94
2023-08-20T16:28:04.219Z,100778.72
2023-08-20T16:30:31.708Z,100770.31
2023-08-20T16:33:01.419Z,100735.78
2023-08-20T16:35:29.009Z,100743.34
2023-08-20T16:37:56.503Z,100753.41
2023-08-20T16:40:24.477Z,100755.94
2023-08-20T16:42:52.254Z,100759.72
2023-08-20T16:45:19.917Z,100763.25
2023-08-20T16:47:47.428Z,100767.91
2023-08-20T16:50:17.010Z,100751.31
2023-08-20T16:52:44.845Z,100739.22
2023-08-20T16:55:12.584Z,100730.59
2023-08-20T16:57:40.344Z,100723.41
2023-08-20T17:00:09.155Z,100725.28
2023-08-20T17:02:37.113Z,100713.09
2023-08-20T17:05:05.198Z,100702.34
2023-08-20T17:07:34.657Z,100710.69
2023-08-20T17:10:02.573Z,100711.38
2023-08-20T17:12:30.500Z,100722.78
2023-08-20T17:14:58.518Z,100722.66
2023-08-20T17:17:29.641Z,100720.97
2023-08-20T17:19:57.445Z,100730.34
2023-08-20T17:22:25.001Z,100731.31
2023-08-20T17:24:53.897Z,100736.03
2023-08-20T17:27:21.493Z,100731.03
2023-08-20T17:29:49.852Z,100720.75
2023-08-20T17:32:17.359Z,100712.44
2023-08-20T17:34:44.882Z,100698.88
2023-08-20T17:37:12.422Z,100689.47
2023-08-20T17:39:40.044Z,100688.81
2023-08-20T17:42:10.086Z,100687.69
2023-08-20T17:44:37.577Z,100702.03
2023-08-20T17:47:05.283Z,100695.75
2023-08-20T17:49:33.102Z,100701.59
2023-08-20T17:52:00.558Z,100697.13
2023-08-20T17:54:28.043Z,100711.81
2023-08-20T17:56:55.518Z,100723.59
2023-08-20T17:59:24.327Z,100721.75
2023-08-20T18:01:51.930Z,100733.13
2023-08-20T18:04:19.433Z,100736.19
2023-08-20T18:06:46.908Z,100736.59
2023-08-20T18:09:14.394Z,100720.50
2023-08-20T18:11:42.971Z,100711.56
2023-08-20T18:14:10.477Z,100700.81
2023-08-20T18:16:39.384Z,100690.97
2023-08-20T18:19:06.853Z,100678.47
2023-08-20T18:21:34.618Z,100675.66
2023-08-20T18:24:02.165Z,100657.03
2023-08-20T18:26:29.655Z,100654.41
2023-08-20T18:28:58.792Z,100644.34
2023-08-20T18:31:26.384Z,100646.16
2023-08-20T18:33:55.212Z,100639.44
2023-08-20T18:36:24.032Z,100637.63
2023-08-20T18:38:53.528Z,100636.22
2023-08-20T18:41:22.330Z,65387.91
2023-08-20T18:43:49.964Z,100643.28
2023-08-20T18:46:17.510Z,100642.53
2023-08-20T18:48:45.100Z,100639.81
2023-08-20T18:51:18.642Z,100635.31
2023-08-20T18:53:46.343Z,100630.47
2023-08-20T18:56:13.793Z,100622.88
2023-08-20T18:58:41.280Z,100628.22
2023-08-20T19:01:09.252Z,100627.75
2023-08-20T19:03:36.872Z,100643.22
2023-08-20T19:06:05.320Z,100650.84
2023-08-20T19:08:34.133Z,100637.06
2023-08-20T19:11:01.955Z,100623.91
2023-08-20T19:13:29.657Z,100617.59
2023-08-20T19:15:57.582Z,100607.34
2023-08-20T19:18:25.184Z,100606.47
2023-08-20T19:20:54.707Z,100597.38
2023-08-20T19:23:23.397Z,100603.16
2023-08-20T19:25:52.704Z,100595.19
2023-08-20T19:28:20.206Z,100589.88
2023-08-20T19:30:48.522Z,100594.56
2023-08-20T19:33:16.883Z,100585.03
2023-08-20T19:35:45.531Z,100600.16
2023-08-20T19:38:13.970Z,100596.84
2023-08-20T19:40:42.620Z,100604.00
2023-08-20T19:43:11.571Z,100624.13
2023-08-20T19:45:39.205Z,100632.16
2023-08-20T19:48:07.593Z,100638.09
2023-08-20T19:50:35.077Z,100638.34
2023-08-20T19:53:04.973Z,100644.84
2023-08-20T19:55:32.564Z,100656.06
2023-08-20T19:58:01.899Z,100660.19
2023-08-20T20:00:31.380Z,100654.19
2023-08-20T20:02:59.203Z,100667.13
2023-08-20T20:05:29.269Z,100674.75
2023-08-20T20:07:56.750Z,100689.06
2023-08-20T20:10:24.702Z,100697.16
2023-08-20T20:12:52.176Z,100704.59
2023-08-20T20:15:19.935Z,100706.94
2023-08-20T20:17:48.746Z,100705.13
2023-08-20T20:20:16.794Z,100701.84
2023-08-20T20:22:45.550Z,100690.94
2023-08-20T20:25:14.074Z,100691.00
2023-08-20T20:27:41.575Z,100694.97
2023-08-20T20:30:10.439Z,100692.28
2023-08-20T20:32:38.716Z,100699.25
2023-08-20T20:35:09.421Z,100689.91
2023-08-20T20:37:37.044Z,100685.94
2023-08-20T20:40:08.805Z,100702.28
2023-08-20T20:42:36.929Z,100695.84
2023-08-20T20:45:06.737Z,100696.88
2023-08-20T20:47:34.325Z,100695.78
2023-08-20T20:50:02.211Z,100695.44
2023-08-20T20:52:31.097Z,100696.88
2023-08-20T20:54:58.665Z,100701.47
2023-08-20T20:57:26.150Z,100701.13
2023-08-20T20:59:56.250Z,100698.34
2023-08-20T21:02:23.794Z,100702.91
2023-08-20T21:04:51.308Z,100707.25
2023-08-20T21:07:18.807Z,100708.41
2023-08-20T21:09:47.598Z,100716.72
2023-08-20T21:12:15.091Z,100722.91
2023-08-20T21:14:42.571Z,100743.66
2023-08-20T21:17:10.111Z,100764.06
2023-08-20T21:19:37.592Z,100787.06
2023-08-20T21:22:12.054Z,100810.28
2023-08-20T21:24:39.589Z,100838.97
2023-08-20T21:27:08.721Z,100846.56
2023-08-20T21:29:36.267Z,100870.44
2023-08-20T21:32:04.110Z,100884.75
2023-08-20T21:34:31.972Z,100895.31
2023-08-20T21:37:00.240Z,100913.38
2023-08-20T21:39:28.000Z,100914.19
2023-08-20T21:41:55.780Z,100914.03
2023-08-20T21:44:26.166Z,100923.84
2023-08-20T21:46:56.174Z,100923.09
2023-08-20T21:49:24.982Z,100920.75
2023-08-20T21:51:52.567Z,100918.91
2023-08-20T21:54:20.559Z,100924.34
2023-08-20T21:56:50.648Z,100922.00
2023-08-20T21:59:18.376Z,100922.44
2023-08-20T22:01:47.250Z,100905.22
2023-08-20T22:04:15.855Z,100882.53
2023-08-20T22:06:43.436Z,100856.94
2023-08-20T22:09:11.805Z,100829.66
2023-08-20T22:11:39.390Z,100802.69
2023-08-20T22:14:06.945Z,100807.81
2023-08-20T22:16:34.447Z,100803.78
2023-08-20T22:19:03.304Z,100798.13
2023-08-20T22:21:30.783Z,100790.56
2023-08-20T22:23:58.251Z,100790.59
2023-08-20T22:26:25.783Z,100783.56
2023-08-20T22:28:53.254Z,100785.75
2023-08-20T22:31:20.788Z,100768.22
2023-08-20T22:33:48.278Z,100752.88
2023-08-20T22:36:17.155Z,100723.75
2023-08-20T22:38:44.626Z,100725.94
2023-08-20T22:41:12.112Z,100718.63
2023-08-20T22:43:39.602Z,100722.69
2023-08-20T22:46:07.143Z,100714.34
2023-08-20T22:48:34.692Z,100725.94
2023-08-20T22:51:02.186Z,100712.47
2023-08-20T22:53:31.486Z,100714.06
2023-08-20T22:55:59.089Z,100708.13
2023-08-20T22:58:26.569Z,100715.66
2023-08-20T23:00:54.106Z,100713.22
2023-08-20T23:03:21.602Z,100707.00
2023-08-20T23:05:49.435Z,100712.13
2023-08-20T23:08:16.931Z,100719.91
2023-08-20T23:10:45.770Z,100709.91
2023-08-20T23:13:13.242Z,100720.66
2023-08-20T23:15:43.604Z,100735.78
2023-08-20T23:18:12.246Z,100747.84
2023-08-20T23:20:39.727Z,100760.66
2023-08-20T23:23:07.270Z,100779.50
2023-08-20T23:25:34.782Z,100792.59
2023-08-20T23:28:05.250Z,100816.00
2023-08-20T23:30:32.874Z,100826.53
2023-08-20T23:33:00.383Z,100820.41
2023-08-20T23:35:27.893Z,100835.75
2023-08-20T23:37:57.797Z,100843.56
2023-08-20T23:40:25.341Z,100855.88
2023-08-20T23:42:52.846Z,100843.50
2023-08-20T23:45:21.656Z,100825.97
2023-08-20T23:47:49.168Z,100819.53
2023-08-20T23:50:16.839Z,100806.28
2023-08-20T23:52:44.337Z,100803.03
2023-08-20T23:55:11.818Z,100808.06
2023-08-20T23:57:39.622Z,100808.97
